createdAt,value
2023-03-29T00:02:47.391Z,1
2023-03-29T00:07:53.365Z,1.2
2023-03-29T00:12:59.504Z,1.6
2023-03-29T00:18:05.684Z,1.4
2023-03-29T00:23:11.839Z,1.4
2023-03-29T00:28:17.953Z,1.3
2023-03-29T00:33:24.098Z,1.2
2023-03-29T00:38:30.244Z,1.3
2023-03-29T00:43:36.354Z,1.3
2023-03-29T00:48:42.490Z,1.5
2023-03-29T00:53:48.636Z,1.4
2023-03-29T01:04:00.997Z,1.6
2023-03-29T01:09:07.117Z,1.7
2023-03-29T01:14:13.234Z,1.6
2023-03-29T01:19:19.441Z,1.3
2023-03-29T01:24:25.551Z,1
2023-03-29T01:29:31.670Z,0.9
2023-03-29T01:34:37.839Z,0.8
2023-03-29T01:39:43.918Z,0.9
2023-03-29T01:44:50.050Z,1.1
2023-03-29T01:49:56.198Z,1.3
2023-03-29T01:55:02.333Z,1.3
2023-03-29T02:00:08.455Z,1.3
2023-03-29T02:05:14.592Z,1.1
2023-03-29T02:10:20.740Z,1.2
2023-03-29T02:15:27.723Z,1.2
2023-03-29T02:20:33.021Z,1.2
2023-03-29T02:25:39.164Z,1.2
2023-03-29T02:30:45.585Z,1.3
2023-03-29T02:35:51.473Z,1.5
2023-03-29T02:40:57.582Z,1.8
2023-03-29T02:46:03.955Z,2.3
2023-03-29T02:51:09.891Z,2.1
2023-03-29T02:56:15.995Z,1.9
2023-03-29T03:01:23.513Z,2.1
2023-03-29T03:06:28.308Z,2.3
2023-03-29T03:11:44.697Z,2
2023-03-29T03:16:50.860Z,1.7
2023-03-29T03:21:56.970Z,1.5
2023-03-29T03:27:03.279Z,1.7
2023-03-29T03:32:09.287Z,1.8
2023-03-29T03:37:15.376Z,1.5
2023-03-29T03:42:21.637Z,1.6
2023-03-29T03:47:27.671Z,1.8
2023-03-29T03:52:33.791Z,1.9
2023-03-29T03:57:39.921Z,1.8
2023-03-29T04:02:46.176Z,1.8
2023-03-29T04:07:52.235Z,1.5
2023-03-29T04:12:58.349Z,1.5
2023-03-29T04:18:04.523Z,1.5
2023-03-29T04:23:10.776Z,1.6
2023-03-29T04:28:16.786Z,1.9
2023-03-29T04:33:23.247Z,2
2023-03-29T04:38:29.078Z,2
2023-03-29T04:43:35.254Z,2.2
2023-03-29T04:48:41.408Z,1.9
2023-03-29T04:53:47.529Z,2
2023-03-29T04:58:53.648Z,2.2
2023-03-29T05:04:00.114Z,2.1
2023-03-29T05:09:06.006Z,2.1
2023-03-29T05:14:12.052Z,2.4
2023-03-29T05:19:18.193Z,2.9
2023-03-29T05:24:24.369Z,3
2023-03-29T05:29:40.168Z,2.6
2023-03-29T05:34:36.653Z,2.5
2023-03-29T05:39:42.819Z,2.9
2023-03-29T05:44:48.934Z,2.5
2023-03-29T05:49:55.092Z,2.7
2023-03-29T05:55:01.225Z,2.7
2023-03-29T06:00:07.334Z,2.7
2023-03-29T06:05:13.473Z,3
2023-03-29T06:10:19.595Z,2.6
2023-03-29T06:15:25.762Z,2.6
2023-03-29T06:20:31.936Z,2.6
2023-03-29T06:25:38.086Z,2.5
2023-03-29T06:30:44.334Z,2.7
2023-03-29T06:35:50.370Z,2.9
2023-03-29T06:40:56.489Z,3.1
2023-03-29T06:46:02.619Z,3.1
2023-03-29T06:51:09.794Z,3.6
2023-03-29T06:56:14.922Z,3.8
2023-03-29T07:01:21.218Z,4
2023-03-29T07:06:27.179Z,3.5
2023-03-29T07:11:33.492Z,3.6
2023-03-29T07:16:40.706Z,3.8
2023-03-29T07:21:45.660Z,4
2023-03-29T07:27:03.062Z,4.3
2023-03-29T07:31:57.892Z,4.3
2023-03-29T07:37:04.031Z,4.7
2023-03-29T07:42:10.195Z,4.6
2023-03-29T07:47:16.266Z,5
2023-03-29T07:52:22.396Z,4.9
2023-03-29T07:57:28.631Z,4.6
2023-03-29T08:02:34.842Z,4.4
2023-03-29T08:07:40.800Z,4.6
2023-03-29T08:12:46.990Z,4.6
2023-03-29T08:17:53.152Z,4.8
2023-03-29T08:22:59.843Z,4.8
2023-03-29T08:28:05.407Z,4.6
2023-03-29T08:33:11.630Z,4.9
2023-03-29T08:38:17.840Z,4.9
2023-03-29T08:43:24.866Z,5.2
2023-03-29T08:48:30.018Z,5.7
2023-03-29T08:53:36.096Z,6.2
2023-03-29T08:58:42.353Z,6.4
2023-03-29T09:03:48.478Z,6.9
2023-03-29T09:08:54.521Z,7
2023-03-29T09:14:00.722Z,6.8
2023-03-29T09:19:06.829Z,6.3
2023-03-29T09:24:12.961Z,5.8
2023-03-29T09:29:19.079Z,6
2023-03-29T09:34:25.295Z,5.2
2023-03-29T09:39:31.540Z,5.7
2023-03-29T09:44:38.499Z,6.6
2023-03-29T09:49:43.681Z,7.3
2023-03-29T09:54:49.810Z,7.5
2023-03-29T09:59:55.918Z,7.6
2023-03-29T10:05:02.171Z,7.2
2023-03-29T10:10:08.183Z,7.6
2023-03-29T10:15:23.189Z,7.7
2023-03-29T10:20:20.523Z,7.5
2023-03-29T10:25:26.660Z,7.6
2023-03-29T10:30:32.772Z,7.8
2023-03-29T10:35:39.124Z,7.8
2023-03-29T10:45:51.243Z,8.7
2023-03-29T10:50:57.356Z,9
2023-03-29T10:56:03.473Z,8.1
2023-03-29T11:01:09.653Z,7.8
2023-03-29T11:06:15.756Z,7.5
2023-03-29T11:11:21.918Z,7.4
2023-03-29T11:16:28.259Z,8.2
2023-03-29T11:21:34.218Z,9
2023-03-29T11:26:40.346Z,8.8
2023-03-29T11:31:46.552Z,8.7
2023-03-29T11:36:52.608Z,8.2
2023-03-29T11:41:59.068Z,7.7
2023-03-29T11:47:05.025Z,7.3
2023-03-29T11:52:11.092Z,7.4
2023-03-29T11:57:17.207Z,7.4
2023-03-29T12:02:23.357Z,6.7
2023-03-29T12:07:29.439Z,6.5
2023-03-29T12:12:35.579Z,6.1
2023-03-29T12:17:41.743Z,6.1
2023-03-29T12:22:47.845Z,6
2023-03-29T12:27:54.033Z,6.7
2023-03-29T12:33:03.500Z,7
2023-03-29T12:38:06.298Z,6.7
2023-03-29T12:43:12.444Z,6.4
2023-03-29T12:48:19.646Z,6.1
2023-03-29T12:53:24.738Z,5.7
2023-03-29T12:58:30.899Z,6.1
2023-03-29T13:03:37.063Z,6.1
2023-03-29T13:08:43.142Z,6.4
2023-03-29T13:13:49.249Z,6.3
2023-03-29T13:18:55.419Z,6.2
2023-03-29T13:24:01.576Z,5.9
2023-03-29T13:29:07.677Z,5.6
2023-03-29T13:34:13.849Z,5.6
2023-03-29T13:39:20.007Z,6.3
2023-03-29T13:44:26.121Z,6.6
2023-03-29T13:49:32.263Z,6.5
2023-03-29T13:54:38.638Z,6
2023-03-29T13:59:44.570Z,6.1
2023-03-29T14:04:50.918Z,6.3
2023-03-29T14:09:57.088Z,6.1
2023-03-29T14:15:03.022Z,6
2023-03-29T14:20:09.113Z,5.8
2023-03-29T14:25:15.296Z,5.6
2023-03-29T14:30:21.646Z,5.9
2023-03-29T14:35:27.505Z,5.1
2023-03-29T14:40:33.662Z,5.2
2023-03-29T14:45:39.856Z,5.6
2023-03-29T14:50:45.906Z,5.9
2023-03-29T14:55:52.135Z,6.4
2023-03-29T15:00:58.506Z,6.5
2023-03-29T15:06:04.672Z,6.3
2023-03-29T15:11:10.671Z,6.3
2023-03-29T15:16:16.669Z,6.2
2023-03-29T15:21:22.835Z,5.9
2023-03-29T15:26:28.937Z,6
2023-03-29T15:31:35.236Z,6.1
2023-03-29T15:36:41.226Z,6.1
2023-03-29T15:41:47.348Z,6
2023-03-29T15:46:53.582Z,6
2023-03-29T15:51:59.655Z,5.7
2023-03-29T15:57:05.817Z,5.8
2023-03-29T16:02:11.943Z,6
2023-03-29T16:07:18.156Z,5.9
2023-03-29T16:12:24.367Z,6
2023-03-29T16:17:30.321Z,6
2023-03-29T16:22:36.515Z,6
2023-03-29T16:27:42.655Z,5.8
2023-03-29T16:32:48.792Z,5.7
2023-03-29T16:37:55.189Z,5.8
2023-03-29T16:43:01.084Z,5.7
2023-03-29T16:48:07.200Z,5.7
2023-03-29T16:53:13.322Z,5.6
2023-03-29T16:58:19.465Z,5.6
2023-03-29T17:03:25.617Z,5.6
2023-03-29T17:08:31.763Z,5.8
2023-03-29T17:13:38.158Z,5.3
2023-03-29T17:18:43.990Z,5.4
2023-03-29T17:23:50.184Z,5.3
2023-03-29T17:28:56.299Z,5.1
2023-03-29T17:34:02.486Z,5.1
2023-03-29T17:39:08.616Z,5.5
2023-03-29T17:44:14.715Z,5
2023-03-29T17:49:20.894Z,5.5
2023-03-29T17:54:27.036Z,5.2
2023-03-29T17:59:33.149Z,4.9
2023-03-29T18:04:39.392Z,5.6
2023-03-29T18:09:45.421Z,5.5
2023-03-29T18:14:51.551Z,5.2
2023-03-29T18:19:57.732Z,5.3
2023-03-29T18:25:03.824Z,6.1
2023-03-29T18:30:10.208Z,6
2023-03-29T18:35:16.165Z,5.3
2023-03-29T18:40:22.269Z,5.9
2023-03-29T18:45:28.441Z,5.7
2023-03-29T18:50:34.550Z,5.3
2023-03-29T18:55:40.849Z,5.6
2023-03-29T19:00:46.863Z,5.7
2023-03-29T19:05:52.989Z,5.1
2023-03-29T19:10:59.108Z,5.2
2023-03-29T19:16:05.405Z,5.2
2023-03-29T19:21:11.534Z,5.2
2023-03-29T19:26:17.519Z,5.5
2023-03-29T19:31:23.688Z,5.3
2023-03-29T19:36:29.858Z,5.2
2023-03-29T19:41:35.965Z,5.4
2023-03-29T19:46:42.110Z,5.4
2023-03-29T19:51:48.253Z,5.2
2023-03-29T19:56:54.427Z,5.2
2023-03-29T20:02:00.564Z,5.2
2023-03-29T20:07:06.624Z,5.4
2023-03-29T20:12:23.053Z,5.3
2023-03-29T20:17:29.252Z,5.2
2023-03-29T20:22:35.367Z,5.3
2023-03-29T20:27:41.549Z,5.4
2023-03-29T20:32:47.687Z,5.4
2023-03-29T20:37:53.781Z,5.6
2023-03-29T20:42:59.938Z,5.6
2023-03-29T20:48:06.098Z,5.6
2023-03-29T20:53:12.196Z,5.6
2023-03-29T20:58:18.334Z,5.7
2023-03-29T21:03:24.540Z,5.4
2023-03-29T21:08:30.619Z,5.3
2023-03-29T21:13:37.352Z,5.8
2023-03-29T21:18:42.887Z,5.6
2023-03-29T21:23:49.052Z,5.7
2023-03-29T21:28:55.234Z,6
2023-03-29T21:34:01.289Z,6.2
2023-03-29T21:39:07.407Z,6.1
2023-03-29T21:44:13.578Z,6.1
2023-03-29T21:49:19.756Z,6
2023-03-29T21:54:26.001Z,5.9
2023-03-29T21:59:31.989Z,5.4
2023-03-29T22:04:38.166Z,5.4
2023-03-29T22:09:44.294Z,5.5
2023-03-29T22:14:50.450Z,6
2023-03-29T22:19:56.553Z,5.6
2023-03-29T22:25:02.752Z,5.4
2023-03-29T22:30:08.846Z,5.7
2023-03-29T22:35:15.236Z,5.6
2023-03-29T22:40:21.142Z,5.6
2023-03-29T22:45:27.307Z,5.4
2023-03-29T22:50:33.429Z,5.3
2023-03-29T22:55:39.702Z,5.3
2023-03-29T23:00:45.730Z,5.6
2023-03-29T23:05:51.821Z,5.5
2023-03-29T23:10:57.993Z,5.5
2023-03-29T23:16:04.186Z,5.7
2023-03-29T23:21:10.277Z,5.8
2023-03-29T23:26:16.472Z,6
2023-03-29T23:31:22.608Z,5.4
2023-03-29T23:36:28.702Z,5.5
2023-03-29T23:41:34.859Z,5.3
2023-03-29T23:46:41.107Z,5.5
2023-03-29T23:51:47.378Z,5.4
2023-03-29T23:56:53.505Z,5.4
